Hlavní strana
METAR-TAF:

METAR-TAF

Letiště :

Sandnessjøen, Norsko

zeměpisná šířka: 65-58N, zeměpisná délka: 012-28E, výška: 1 m

Aktuální stav počasí

Zpráva byla vytvořena před 6 hodinami a 41 minutami, v 19:20 UTC
Jihojihozápadní vítr 8 kt
Teplota 11°C
Vlhkost vzduchu 71%
Tlak 1006 hPa
Viditelnost 10 km a více
Skoro jasno ve výšce 2500 ft, Vertikální cumulus.
Oblačno až skoro zataženo ve výšce 5500 ft

METAR: ENST 081920Z 21008KT 9999 FEW025TCU BKN055 11/06 Q1006 RMK WIND 300FT 21010KT

Čas: 04:01 (02:01 UTC)


TAF: chybějící

Stav a předpovědi počasí z více než 4 000 letišť (zprávy METAR a TAF).

Červené a žluté tečky na mapě představují dostupné meteorologické stanice.

Když kurzor umístíte na tečku, zobrazí se název stanice.

Pak kliknutím zobrazíte stav a předpověď počasí.

Chcete-li změnit mapu, kliknutím na zelené tlačítko se znaménkem +mapu přiblížíte, kliknutím na zelené tlačítko se znaménkem – mapu oddálíte a kliknutím na zelené šipky přejdete na sousední mapy.


METAR-TAF: